Time;durP1;ratioP1;P1;durP2;ratioP2;P2;SDS_P1;SDS_P2;PMS_P1;PMS_P2;Temp;Humidity;BMP_temperature;BMP_pressure;BME280_temperature;BME280_humidity;BME280_pressure;Samples;Min_cycle;Max_cycle;Signal;HPM_P1;HPM_P2
2022/01/15 00:01:46;;;;;;;73.03;51.28;;;-2.00;99.90;;;;;;4952920;29;20519;-59
2022/01/15 00:04:11;;;;;;;79.57;57.15;;;-2.10;99.90;;;;;;4955092;28;20023;-60
2022/01/15 00:06:37;;;;;;;84.85;60.50;;;-2.50;99.90;;;;;;4953814;29;20045;-58
2022/01/15 00:09:04;;;;;;;78.65;57.95;;;-2.70;99.90;;;;;;4952584;29;20024;-59
2022/01/15 00:11:30;;;;;;;75.47;55.03;;;-2.40;99.90;;;;;;4952807;29;20452;-60
2022/01/15 00:14:09;;;;;;;89.88;69.00;;;-2.30;99.90;;;;;;4952382;29;20031;-59
2022/01/15 00:16:46;;;;;;;107.78;83.57;;;-2.10;99.90;;;;;;4939174;29;20040;-60
2022/01/15 00:19:16;;;;;;;97.25;72.28;;;-2.10;99.90;;;;;;4954205;28;20382;-59
2022/01/15 00:21:42;;;;;;;100.20;76.30;;;-2.10;99.90;;;;;;4956579;28;20058;-59
2022/01/15 00:24:08;;;;;;;142.70;95.95;;;-2.30;99.90;;;;;;4952414;29;20035;-59
2022/01/15 00:26:34;;;;;;;69.00;54.22;;;-2.50;99.90;;;;;;4952150;29;20037;-57
2022/01/15 00:29:00;;;;;;;82.78;61.22;;;-2.50;99.90;;;;;;4952407;29;20097;-59
2022/01/15 00:31:26;;;;;;;72.07;53.33;;;-2.30;99.90;;;;;;4952899;29;20023;-59
2022/01/15 00:33:52;;;;;;;72.32;53.25;;;-2.30;99.90;;;;;;4956538;29;20038;-59
2022/01/15 00:36:18;;;;;;;75.95;56.08;;;-2.40;99.90;;;;;;4952567;29;20396;-59
2022/01/15 00:38:45;;;;;;;83.78;63.80;;;-2.40;99.90;;;;;;4953595;28;20035;-60
2022/01/15 00:41:11;;;;;;;84.07;67.43;;;-2.20;99.90;;;;;;4952126;29;20031;-59
2022/01/15 00:43:37;;;;;;;96.93;70.93;;;-2.10;99.90;;;;;;4952066;29;20051;-60
2022/01/15 00:46:03;;;;;;;89.03;66.90;;;-2.30;99.90;;;;;;4954615;29;20031;-59
2022/01/15 00:48:29;;;;;;;91.40;65.53;;;-2.80;99.90;;;;;;4953529;29;20031;-59
2022/01/15 00:50:54;;;;;;;92.22;65.53;;;-2.80;99.90;;;;;;4952040;28;20091;-59
2022/01/15 00:53:20;;;;;;;90.28;61.90;;;-2.70;99.90;;;;;;4952093;29;20030;-59
2022/01/15 00:55:46;;;;;;;92.00;62.00;;;-2.80;99.90;;;;;;4951678;29;20059;-59
2022/01/15 00:58:13;;;;;;;90.55;64.47;;;-2.80;99.90;;;;;;4953609;29;20038;-60
2022/01/15 01:00:39;;;;;;;80.22;58.28;;;-2.70;99.90;;;;;;4956047;28;20019;-60
2022/01/15 01:03:05;;;;;;;83.82;60.35;;;-2.80;99.90;;;;;;4951860;29;20059;-59
2022/01/15 01:05:30;;;;;;;85.50;61.25;;;-2.70;99.90;;;;;;4951966;28;20520;-60
2022/01/15 01:07:57;;;;;;;84.28;60.92;;;-2.50;99.90;;;;;;4951822;29;20046;-59
2022/01/15 01:11:12;;;;;;;116.97;76.10;;;-2.30;99.90;;;;;;4952186;28;20027;-60
2022/01/15 01:24:25;;;;;;;85.50;58.58;;;-2.30;99.90;;;;;;4952416;29;20046;-60
2022/01/15 01:27:43;;;;;;;76.13;55.30;;;-2.30;99.90;;;;;;4929068;29;20475;-60
2022/01/15 01:30:31;;;;;;;85.97;62.85;;;-2.30;99.90;;;;;;4941419;29;20066;-59
2022/01/15 01:34:54;;;;;;;59.47;43.70;;;-2.40;99.90;;;;;;4951881;29;20496;-59
2022/01/15 01:37:31;;;;;;;58.08;42.95;;;-2.50;99.90;;;;;;4951753;29;20063;-60
2022/01/15 01:40:18;;;;;;;51.70;39.65;;;-2.50;99.90;;;;;;4948285;28;20122;-60
2022/01/15 01:42:52;;;;;;;50.33;38.10;;;-2.60;99.90;;;;;;4950911;29;20110;-60
2022/01/15 01:45:17;;;;;;;47.28;36.13;;;-2.60;99.90;;;;;;4951632;29;20154;-59
2022/01/15 01:47:43;;;;;;;51.60;38.47;;;-2.80;99.90;;;;;;4951381;29;20126;-60
2022/01/15 01:50:14;;;;;;;54.35;39.78;;;-2.80;99.90;;;;;;4951832;29;20077;-59
2022/01/15 01:52:41;;;;;;;51.50;38.60;;;-2.90;99.90;;;;;;4951207;29;20027;-59
2022/01/15 01:55:08;;;;;;;50.85;40.88;;;-2.90;99.90;;;;;;4951147;29;20046;-59
2022/01/15 01:57:34;;;;;;;50.97;38.47;;;-2.80;99.90;;;;;;4954208;29;20011;-60
2022/01/15 02:00:01;;;;;;;47.30;37.45;;;-2.80;99.90;;;;;;4952230;29;20027;-59
2022/01/15 02:02:26;;;;;;;47.83;37.10;;;-2.80;99.90;;;;;;4950502;28;20031;-59
2022/01/15 02:04:57;;;;;;;47.97;36.67;;;-2.90;99.90;;;;;;4951016;29;20030;-59
2022/01/15 02:07:25;;;;;;;44.60;34.63;;;-2.90;99.90;;;;;;4951347;28;20065;-59
2022/01/15 02:09:52;;;;;;;46.58;36.00;;;-2.90;99.90;;;;;;4953981;29;20027;-59
2022/01/15 02:12:17;;;;;;;42.45;34.97;;;-2.90;99.90;;;;;;4950674;29;20070;-60
2022/01/15 02:14:43;;;;;;;43.22;33.70;;;-2.90;99.90;;;;;;4950614;29;20531;-60
2022/01/15 02:17:11;;;;;;;45.97;34.92;;;-3.00;99.90;;;;;;4950349;29;20042;-59
2022/01/15 02:19:45;;;;;;;43.70;33.85;;;-3.10;99.90;;;;;;4950471;29;20505;-60
2022/01/15 02:24:55;;;;;;;40.10;30.88;;;-3.10;99.90;;;;;;4954239;29;20115;-59
2022/01/15 02:27:21;;;;;;;55.85;44.03;;;-3.00;99.90;;;;;;4950190;28;20119;-59
2022/01/15 02:29:47;;;;;;;45.28;35.85;;;-2.80;99.90;;;;;;4950581;29;20055;-59
2022/01/15 02:32:12;;;;;;;38.25;29.92;;;-2.90;99.90;;;;;;4950214;29;20054;-59
2022/01/15 02:34:38;;;;;;;41.72;33.08;;;-2.80;99.90;;;;;;4951693;29;20019;-59
2022/01/15 02:37:04;;;;;;;38.90;31.85;;;-2.80;99.90;;;;;;4952888;28;20110;-59
2022/01/15 02:39:34;;;;;;;42.38;32.92;;;-2.80;99.90;;;;;;4952945;29;20487;-59
2022/01/15 02:41:59;;;;;;;45.70;34.28;;;-2.90;99.90;;;;;;4949984;29;20039;-59
2022/01/15 02:44:25;;;;;;;47.53;38.15;;;-3.00;99.90;;;;;;4961294;28;20062;-59
2022/01/15 02:49:17;;;;;;;39.38;29.55;;;-3.20;99.90;;;;;;4951360;29;20043;-60
2022/01/15 02:51:43;;;;;;;31.67;26.08;;;-3.30;99.90;;;;;;4951316;28;20027;-58
2022/01/15 02:54:09;;;;;;;32.55;26.35;;;-3.40;99.90;;;;;;4950026;29;20070;-59
2022/01/15 02:56:37;;;;;;;33.15;26.60;;;-3.30;99.90;;;;;;4949981;29;20491;-59
2022/01/15 02:59:05;;;;;;;34.45;27.42;;;-3.20;99.90;;;;;;4964467;28;20031;-59
2022/01/15 03:01:32;;;;;;;32.60;25.98;;;-3.20;99.90;;;;;;4949868;28;20102;-59
2022/01/15 03:03:57;;;;;;;32.92;26.38;;;-3.20;99.90;;;;;;4953394;28;20027;-59
2022/01/15 03:06:23;;;;;;;33.25;25.40;;;-3.20;99.90;;;;;;4951667;29;20034;-59
2022/01/15 03:08:51;;;;;;;39.30;29.13;;;-3.20;99.90;;;;;;4949594;29;20174;-59
2022/01/15 03:11:17;;;;;;;38.95;29.75;;;-3.30;99.90;;;;;;4949692;28;20027;-60
2022/01/15 03:13:44;;;;;;;56.20;38.53;;;-3.20;99.90;;;;;;4951173;29;20035;-59
2022/01/15 03:16:14;;;;;;;45.67;33.00;;;-3.20;99.90;;;;;;4951860;28;20481;-59
2022/01/15 03:18:40;;;;;;;40.22;30.02;;;-3.10;99.90;;;;;;4952157;29;20023;-59
2022/01/15 03:21:06;;;;;;;50.08;36.08;;;-3.10;99.90;;;;;;4949111;28;20393;-59
2022/01/15 03:23:32;;;;;;;39.95;30.17;;;-3.10;99.90;;;;;;4949765;29;20135;-59
2022/01/15 03:25:57;;;;;;;45.60;35.22;;;-3.20;99.90;;;;;;4950085;29;20110;-59
2022/01/15 03:28:23;;;;;;;49.42;37.03;;;-3.50;99.90;;;;;;4949808;29;20042;-59
2022/01/15 03:30:49;;;;;;;39.83;28.92;;;-3.70;99.90;;;;;;4953173;29;20074;-59
2022/01/15 03:33:15;;;;;;;39.45;29.08;;;-3.90;99.90;;;;;;4949276;29;20484;-59
2022/01/15 03:35:41;;;;;;;40.30;28.15;;;-3.80;99.90;;;;;;4949161;29;20024;-60
2022/01/15 03:38:07;;;;;;;31.95;24.27;;;-3.80;99.90;;;;;;4949742;29;20381;-60
2022/01/15 03:40:34;;;;;;;37.08;26.98;;;-3.30;99.90;;;;;;4949879;29;20091;-59
2022/01/15 03:43:00;;;;;;;38.08;28.42;;;-3.10;99.90;;;;;;4952467;28;20420;-59
2022/01/15 03:45:26;;;;;;;37.05;27.38;;;-3.00;99.90;;;;;;4950420;29;20042;-59
2022/01/15 03:47:52;;;;;;;40.58;29.38;;;-3.00;99.90;;;;;;4949559;29;20066;-60
2022/01/15 03:50:19;;;;;;;38.67;28.02;;;-3.40;99.90;;;;;;4949007;29;20504;-59
2022/01/15 03:52:45;;;;;;;40.47;30.23;;;-3.50;99.90;;;;;;4950955;28;20031;-59
2022/01/15 03:55:13;;;;;;;37.50;28.42;;;-3.50;99.90;;;;;;4951525;28;20030;-58
2022/01/15 03:57:40;;;;;;;32.75;23.35;;;-3.70;99.90;;;;;;4951404;29;20047;-59
2022/01/15 04:00:12;;;;;;;41.97;30.80;;;-3.90;99.90;;;;;;4949282;29;20031;-60
2022/01/15 04:02:39;;;;;;;40.83;30.15;;;-4.10;99.90;;;;;;4950802;29;20019;-60
2022/01/15 04:05:05;;;;;;;37.40;28.67;;;-4.00;99.90;;;;;;4952904;29;20043;-59
2022/01/15 04:07:31;;;;;;;40.08;30.42;;;-4.00;99.90;;;;;;4952995;28;20091;-59
2022/01/15 04:09:57;;;;;;;41.95;29.88;;;-4.00;99.90;;;;;;4956680;29;20492;-60
2022/01/15 04:12:22;;;;;;;40.05;30.08;;;-4.00;99.90;;;;;;4952956;29;20035;-59
2022/01/15 04:14:48;;;;;;;44.33;34.92;;;-3.80;99.90;;;;;;4952487;28;20023;-59
2022/01/15 04:17:14;;;;;;;44.10;33.75;;;-3.40;99.90;;;;;;4952591;29;20039;-59
2022/01/15 04:19:40;;;;;;;40.65;31.40;;;-3.50;99.90;;;;;;4952518;29;20028;-59
2022/01/15 04:22:06;;;;;;;40.25;29.60;;;-3.50;99.90;;;;;;4955053;28;20090;-59
2022/01/15 04:24:32;;;;;;;41.13;31.63;;;-3.30;99.90;;;;;;4954092;29;20031;-59
2022/01/15 04:26:58;;;;;;;40.03;30.38;;;-3.50;99.90;;;;;;4952322;29;20134;-58
2022/01/15 04:29:24;;;;;;;39.55;31.05;;;-3.70;99.90;;;;;;4952357;29;20447;-59
2022/01/15 04:31:51;;;;;;;37.88;28.65;;;-3.80;99.90;;;;;;4954019;29;20028;-59
2022/01/15 04:34:27;;;;;;;40.72;30.73;;;-3.70;99.90;;;;;;4953407;28;20073;-59
2022/01/15 04:37:00;;;;;;;36.30;28.48;;;-3.80;99.90;;;;;;4956261;29;20047;-59
2022/01/15 04:39:26;;;;;;;36.40;28.25;;;-3.80;99.90;;;;;;4953233;29;20031;-59
2022/01/15 04:41:52;;;;;;;39.65;30.15;;;-4.10;99.90;;;;;;4952143;28;20093;-59
2022/01/15 04:44:17;;;;;;;49.13;36.35;;;-4.30;99.90;;;;;;4952208;29;20078;-59
2022/01/15 04:46:43;;;;;;;45.22;33.83;;;-4.40;99.90;;;;;;4952029;29;20035;-59
2022/01/15 04:49:09;;;;;;;43.15;31.75;;;-4.30;99.90;;;;;;4954065;29;20130;-59
2022/01/15 04:51:35;;;;;;;43.17;30.55;;;-4.00;99.90;;;;;;4953704;29;20069;-59
2022/01/15 04:54:01;;;;;;;37.00;28.10;;;-3.90;99.90;;;;;;4952508;29;20058;-59
2022/01/15 04:56:27;;;;;;;40.47;30.38;;;-4.00;99.90;;;;;;4951970;29;20429;-59
2022/01/15 04:58:52;;;;;;;39.72;28.17;;;-4.20;99.90;;;;;;4951972;29;20055;-59
2022/01/15 05:01:18;;;;;;;37.78;28.52;;;-4.30;99.90;;;;;;4953152;29;20039;-59
2022/01/15 05:03:44;;;;;;;37.92;28.20;;;-4.30;99.90;;;;;;4954614;29;20098;-59
2022/01/15 05:06:09;;;;;;;42.13;29.92;;;-4.10;99.90;;;;;;4951731;29;20500;-59
2022/01/15 05:08:35;;;;;;;37.42;27.90;;;-4.00;99.90;;;;;;4951828;29;20027;-59
2022/01/15 05:11:11;;;;;;;38.90;28.98;;;-3.90;99.90;;;;;;4952813;29;20031;-60
2022/01/15 05:13:37;;;;;;;37.95;27.85;;;-3.90;99.90;;;;;;4952635;28;20059;-59
2022/01/15 05:16:04;;;;;;;37.78;27.52;;;-4.20;99.90;;;;;;4954289;28;20519;-59
2022/01/15 05:18:29;;;;;;;36.05;27.23;;;-4.20;99.90;;;;;;4952514;29;20062;-60
2022/01/15 05:20:57;;;;;;;34.65;25.00;;;-4.10;99.90;;;;;;4951492;29;20058;-60
2022/01/15 05:23:22;;;;;;;34.92;25.65;;;-4.30;99.90;;;;;;4953020;29;20523;-59
2022/01/15 05:25:48;;;;;;;36.20;26.83;;;-4.30;99.90;;;;;;4951437;29;20031;-59
2022/01/15 05:28:14;;;;;;;36.05;26.25;;;-4.30;99.90;;;;;;4953286;29;20119;-59
2022/01/15 05:30:40;;;;;;;34.30;26.85;;;-4.00;99.90;;;;;;4953432;29;20078;-59
2022/01/15 05:33:06;;;;;;;32.55;23.77;;;-3.90;99.90;;;;;;4951355;29;20428;-59
2022/01/15 05:35:32;;;;;;;34.90;24.70;;;-3.60;99.90;;;;;;4951266;29;20015;-59
2022/01/15 05:37:59;;;;;;;31.05;23.50;;;-3.50;99.90;;;;;;4951428;29;20407;-59
2022/01/15 05:40:26;;;;;;;33.17;25.17;;;-3.60;99.90;;;;;;4951786;28;20166;-59
2022/01/15 05:42:53;;;;;;;33.65;25.55;;;-3.50;99.90;;;;;;4954747;28;20519;-60
2022/01/15 05:45:21;;;;;;;76.45;42.88;;;-3.40;99.90;;;;;;4950724;29;20035;-60
2022/01/15 05:47:47;;;;;;;101.57;56.17;;;-3.30;99.90;;;;;;4957234;28;20035;-59
2022/01/15 05:50:13;;;;;;;139.07;75.43;;;-3.30;99.90;;;;;;4952353;28;20114;-59
2022/01/15 05:52:39;;;;;;;237.90;138.07;;;-3.20;99.90;;;;;;4952289;29;20038;-59
2022/01/15 05:55:06;;;;;;;213.70;143.75;;;-3.30;99.90;;;;;;4953587;28;20035;-59
2022/01/15 05:57:32;;;;;;;276.27;157.80;;;-3.30;99.90;;;;;;4952529;29;20089;-59
2022/01/15 05:59:58;;;;;;;257.20;102.00;;;-3.30;99.90;;;;;;4950470;29;20031;-59
2022/01/15 06:02:23;;;;;;;223.05;69.03;;;-3.30;99.90;;;;;;4950633;29;20507;-59
2022/01/15 06:04:49;;;;;;;158.75;81.88;;;-3.40;99.90;;;;;;4950771;29;20023;-59
2022/01/15 06:07:15;;;;;;;98.97;48.58;;;-3.40;99.90;;;;;;4952901;28;20039;-59
2022/01/15 06:09:41;;;;;;;203.40;63.63;;;-3.50;99.90;;;;;;4952618;29;20514;-59
2022/01/15 06:12:09;;;;;;;130.95;49.25;;;-3.50;99.90;;;;;;4950317;29;20043;-59
2022/01/15 06:14:34;;;;;;;129.75;50.95;;;-3.50;99.90;;;;;;4950125;29;20515;-59
2022/01/15 06:17:00;;;;;;;199.95;94.13;;;-3.60;99.90;;;;;;4950657;28;20058;-60
2022/01/15 06:19:26;;;;;;;370.77;220.88;;;-3.50;99.90;;;;;;4951075;29;20031;-59
2022/01/15 06:21:53;;;;;;;454.10;321.75;;;-3.40;99.90;;;;;;4953909;29;20027;-59
2022/01/15 06:24:19;;;;;;;91.15;48.50;;;-3.50;99.90;;;;;;4950354;29;20070;-59
2022/01/15 06:26:44;;;;;;;100.45;48.08;;;-3.60;99.90;;;;;;4950015;28;20504;-59
2022/01/15 06:29:10;;;;;;;325.92;242.48;;;-3.70;99.90;;;;;;4951398;29;20138;-59
2022/01/15 06:31:36;;;;;;;163.00;120.63;;;-3.60;99.90;;;;;;4952084;28;20023;-58
2022/01/15 06:34:02;;;;;;;95.60;67.35;;;-3.70;99.90;;;;;;4953417;29;20031;-59
2022/01/15 06:36:28;;;;;;;89.53;58.28;;;-3.90;99.90;;;;;;4951115;29;20030;-59
2022/01/15 06:38:54;;;;;;;55.20;33.97;;;-4.00;99.90;;;;;;4950186;29;20027;-58
2022/01/15 06:41:20;;;;;;;51.38;33.58;;;-4.10;99.90;;;;;;4949844;28;20496;-59
2022/01/15 06:43:46;;;;;;;54.17;34.03;;;-4.20;99.90;;;;;;4949878;28;20052;-59
2022/01/15 06:46:12;;;;;;;62.15;39.65;;;-4.10;99.90;;;;;;4967212;28;20023;-59
2022/01/15 06:48:37;;;;;;;51.92;34.83;;;-4.00;99.90;;;;;;4951460;29;20542;-60
2022/01/15 06:51:03;;;;;;;51.75;34.10;;;-3.90;99.90;;;;;;4950238;29;20062;-59
2022/01/15 06:53:29;;;;;;;49.58;32.72;;;-4.30;99.90;;;;;;4949938;28;20118;-59
2022/01/15 06:55:55;;;;;;;53.03;33.67;;;-4.60;99.90;;;;;;4949807;29;20031;-59
2022/01/15 06:58:24;;;;;;;51.72;34.83;;;-4.50;99.90;;;;;;4950640;28;20086;-59
2022/01/15 07:00:50;;;;;;;55.47;38.45;;;-4.50;99.90;;;;;;4952960;29;20031;-59
2022/01/15 07:03:16;;;;;;;63.30;41.65;;;-4.40;99.90;;;;;;4949780;28;20369;-59
2022/01/15 07:05:42;;;;;;;63.47;41.03;;;-4.50;99.90;;;;;;4949972;29;20034;-59
2022/01/15 07:08:08;;;;;;;65.97;41.05;;;-4.60;99.90;;;;;;4949651;28;20080;-59
2022/01/15 07:10:38;;;;;;;61.15;38.65;;;-4.50;99.90;;;;;;4950941;29;20027;-59
2022/01/15 07:13:07;;;;;;;54.95;34.72;;;-4.40;99.90;;;;;;4952092;28;20031;-59
2022/01/15 07:15:33;;;;;;;61.10;38.92;;;-4.40;99.90;;;;;;4952925;29;20454;-59
2022/01/15 07:18:00;;;;;;;57.65;36.85;;;-4.10;99.90;;;;;;4949816;29;20031;-59
2022/01/15 07:20:27;;;;;;;56.97;37.85;;;-4.00;99.90;;;;;;4949374;29;20034;-58
2022/01/15 07:22:53;;;;;;;53.65;34.03;;;-4.00;99.90;;;;;;4949577;29;20055;-58
2022/01/15 07:25:19;;;;;;;59.80;38.95;;;-4.20;99.90;;;;;;4950774;28;20032;-58
2022/01/15 07:27:45;;;;;;;58.47;39.28;;;-4.10;99.90;;;;;;4951723;29;20057;-58
2022/01/15 07:30:13;;;;;;;58.55;38.05;;;-4.00;99.90;;;;;;4949381;28;20515;-59
2022/01/15 07:32:40;;;;;;;55.50;38.70;;;-4.00;99.90;;;;;;4949672;29;20043;-58
2022/01/15 07:35:07;;;;;;;59.90;39.17;;;-4.00;99.90;;;;;;4949274;29;20404;-58
2022/01/15 07:37:34;;;;;;;59.92;39.85;;;-4.00;99.90;;;;;;4950814;28;20027;-59
2022/01/15 07:40:00;;;;;;;57.75;38.03;;;-4.00;99.90;;;;;;4954612;29;20023;-58
2022/01/15 07:42:28;;;;;;;53.50;36.05;;;-4.20;99.90;;;;;;4955099;29;20484;-58
2022/01/15 07:44:54;;;;;;;54.30;36.22;;;-4.30;99.90;;;;;;4953046;28;20054;-58
2022/01/15 07:47:20;;;;;;;53.47;37.45;;;-4.20;99.90;;;;;;4954472;29;20035;-59
2022/01/15 07:49:45;;;;;;;78.07;48.83;;;-4.10;99.90;;;;;;4954678;28;20066;-59
2022/01/15 07:52:11;;;;;;;133.13;70.45;;;-4.10;99.90;;;;;;4954720;29;20492;-59
2022/01/15 07:54:37;;;;;;;145.27;73.80;;;-3.90;99.90;;;;;;4953257;28;20058;-58
2022/01/15 07:57:03;;;;;;;115.70;63.28;;;-3.80;99.90;;;;;;4951739;29;20065;-58
2022/01/15 07:59:29;;;;;;;79.38;47.95;;;-3.60;99.90;;;;;;4947981;29;20473;-58
2022/01/15 08:01:54;;;;;;;68.13;45.22;;;-3.30;99.90;;;;;;4941415;29;20034;-59
2022/01/15 08:04:20;;;;;;;72.40;46.78;;;-3.10;99.90;;;;;;4954167;29;20041;-59
2022/01/15 08:06:46;;;;;;;50.28;36.20;;;-3.00;99.90;;;;;;4955305;29;20035;-58
2022/01/15 08:09:12;;;;;;;52.83;37.53;;;-2.80;99.90;;;;;;4952864;29;20049;-59
2022/01/15 08:11:37;;;;;;;52.67;36.33;;;-2.70;99.90;;;;;;4951597;28;20027;-58
2022/01/15 08:14:03;;;;;;;53.58;36.53;;;-2.60;99.90;;;;;;4952267;29;20042;-59
2022/01/15 08:16:29;;;;;;;58.20;38.88;;;-2.50;99.90;;;;;;4953141;28;20023;-59
2022/01/15 08:18:55;;;;;;;56.53;39.72;;;-2.40;99.90;;;;;;4956737;28;20034;-59
2022/01/15 08:21:20;;;;;;;53.65;37.65;;;-2.40;99.90;;;;;;4952615;29;20034;-59
2022/01/15 08:23:46;;;;;;;55.08;37.17;;;-2.30;99.90;;;;;;4952497;29;20110;-59
2022/01/15 08:26:12;;;;;;;55.78;39.83;;;-2.20;99.90;;;;;;4953021;29;20611;-59
2022/01/15 08:28:38;;;;;;;49.85;35.47;;;-2.10;99.90;;;;;;4954033;29;20045;-59
2022/01/15 08:31:07;;;;;;;60.35;38.15;;;-1.90;99.90;;;;;;4953422;29;20066;-59
2022/01/15 08:33:33;;;;;;;59.67;38.10;;;-1.60;99.90;;;;;;4955218;29;20654;-59
2022/01/15 08:35:59;;;;;;;39.45;29.95;;;-1.60;99.90;;;;;;4951834;29;20027;-58
2022/01/15 08:38:25;;;;;;;1910.22;198.38;;;-1.10;99.90;;;;;;4947655;29;20035;-58
2022/01/15 08:40:51;;;;;;;135.43;36.20;;;0.90;99.90;;;;;;4951594;29;20507;-59
2022/01/15 08:43:16;;;;;;;549.15;74.65;;;1.50;99.90;;;;;;4953375;28;20063;-58
2022/01/15 08:45:43;;;;;;;29.88;23.45;;;2.20;99.90;;;;;;4954623;29;20058;-58
2022/01/15 08:48:10;;;;;;;28.63;22.58;;;2.90;99.90;;;;;;4950700;28;20066;-58
2022/01/15 08:50:36;;;;;;;26.95;21.98;;;3.50;99.90;;;;;;4951222;28;20035;-59
2022/01/15 08:53:06;;;;;;;23.27;17.90;;;3.70;99.90;;;;;;4951682;28;20521;-59
2022/01/15 08:55:35;;;;;;;25.38;19.75;;;4.20;99.90;;;;;;4951438;28;20406;-60
2022/01/15 08:58:02;;;;;;;23.05;17.55;;;4.60;99.90;;;;;;4954823;28;20075;-60
2022/01/15 09:00:28;;;;;;;22.42;16.52;;;5.50;99.90;;;;;;4952015;29;20037;-59
2022/01/15 09:02:55;;;;;;;25.15;16.50;;;5.80;99.90;;;;;;4951333;29;20023;-60
2022/01/15 09:05:22;;;;;;;24.02;19.00;;;6.20;99.90;;;;;;4952961;28;20194;-59
2022/01/15 09:07:49;;;;;;;21.38;17.65;;;5.80;99.90;;;;;;4953231;29;20182;-58
2022/01/15 09:10:15;;;;;;;20.88;16.52;;;5.80;99.90;;;;;;4951922;28;20035;-60
2022/01/15 09:12:41;;;;;;;18.77;15.38;;;5.50;99.90;;;;;;4950428;29;20031;-59
2022/01/15 09:15:07;;;;;;;20.05;15.95;;;6.20;99.90;;;;;;4950934;28;20038;-59
2022/01/15 09:17:33;;;;;;;19.13;14.13;;;6.10;99.90;;;;;;4951093;29;20031;-59
2022/01/15 09:19:59;;;;;;;18.65;15.60;;;7.30;99.90;;;;;;4949763;28;20123;-59
2022/01/15 09:22:24;;;;;;;20.33;14.75;;;7.20;99.90;;;;;;4951156;28;20059;-61
2022/01/15 09:24:50;;;;;;;18.75;14.23;;;7.00;99.90;;;;;;4953570;29;20103;-60
2022/01/15 09:30:15;;;;;;;20.75;15.32;;;7.70;99.90;;;;;;4950746;29;20055;-61
2022/01/15 09:32:45;;;;;;;18.77;14.00;;;8.80;99.90;;;;;;4949832;28;20511;-59
2022/01/15 09:35:13;;;;;;;51.97;45.65;;;8.60;99.90;;;;;;4950313;28;20023;-59
2022/01/15 09:37:39;;;;;;;18.67;14.10;;;7.80;99.90;;;;;;4950155;29;20110;-59
2022/01/15 09:40:06;;;;;;;17.42;13.80;;;8.20;99.90;;;;;;4953111;28;20179;-59
2022/01/15 09:42:33;;;;;;;22.02;15.65;;;8.20;99.90;;;;;;4950643;29;20031;-57
2022/01/15 09:45:01;;;;;;;24.17;17.73;;;7.80;99.90;;;;;;4952026;28;20038;-57
2022/01/15 09:47:28;;;;;;;22.23;17.33;;;7.80;99.90;;;;;;4951576;28;20031;-59
2022/01/15 09:49:54;;;;;;;22.95;17.05;;;9.70;99.90;;;;;;4949746;28;20508;-58
2022/01/15 09:52:20;;;;;;;29.17;24.10;;;7.80;99.90;;;;;;4950266;28;20440;-56
2022/01/15 09:54:47;;;;;;;23.08;17.73;;;7.90;99.90;;;;;;4952918;29;20034;-57
2022/01/15 09:57:12;;;;;;;20.45;15.15;;;8.20;99.90;;;;;;4949458;29;20511;-58
2022/01/15 09:59:38;;;;;;;21.25;15.70;;;9.40;99.90;;;;;;4949727;28;20041;-58
2022/01/15 10:02:05;;;;;;;25.17;17.15;;;8.60;99.90;;;;;;4950543;29;20119;-57
2022/01/15 10:04:32;;;;;;;79.57;48.58;;;8.60;99.90;;;;;;4949639;28;20031;-57
2022/01/15 10:07:15;;;;;;;58.00;40.47;;;7.90;99.90;;;;;;4954030;28;20175;-59
2022/01/15 10:09:43;;;;;;;25.55;19.58;;;7.20;99.90;;;;;;4952542;29;20024;-57
2022/01/15 10:12:10;;;;;;;26.23;19.95;;;6.90;99.90;;;;;;4950515;29;20484;-58
2022/01/15 10:14:39;;;;;;;29.13;23.23;;;8.40;99.90;;;;;;4949509;29;20019;-59
2022/01/15 10:17:27;;;;;;;32.33;24.25;;;7.20;99.90;;;;;;4950062;29;20086;-58
2022/01/15 10:19:53;;;;;;;34.60;25.92;;;7.00;99.90;;;;;;4950531;29;20102;-59
2022/01/15 10:22:21;;;;;;;33.10;24.98;;;8.00;99.90;;;;;;4950650;28;20043;-59
2022/01/15 10:25:00;;;;;;;25.52;18.65;;;9.40;99.90;;;;;;4953098;29;20466;-59
2022/01/15 10:27:26;;;;;;;25.15;17.88;;;12.20;99.90;;;;;;4950932;29;20054;-59
2022/01/15 10:29:59;;;;;;;35.28;25.63;;;12.80;99.20;;;;;;4950960;29;20028;-59
2022/01/15 10:32:29;;;;;;;27.00;18.15;;;11.20;99.90;;;;;;4950256;29;20048;-59
2022/01/15 10:34:56;;;;;;;23.08;16.38;;;11.10;99.90;;;;;;4948734;28;20043;-59
2022/01/15 10:37:25;;;;;;;28.75;19.80;;;11.30;99.90;;;;;;4950448;28;20517;-61
2022/01/15 10:39:56;;;;;;;32.42;24.02;;;11.10;99.90;;;;;;4953520;29;20066;-59
2022/01/15 10:42:23;;;;;;;26.80;19.58;;;10.40;99.90;;;;;;4950182;29;20560;-61
2022/01/15 10:44:51;;;;;;;26.38;20.20;;;11.50;99.90;;;;;;4949493;29;20456;-60
2022/01/15 10:47:22;;;;;;;29.52;23.65;;;11.90;99.20;;;;;;4947874;28;20043;-59
2022/01/15 10:49:48;;;;;;;29.30;22.83;;;10.10;99.90;;;;;;4964333;28;20396;-60
2022/01/15 10:52:24;;;;;;;28.27;22.67;;;10.20;99.90;;;;;;4951790;28;20129;-59
2022/01/15 10:54:53;;;;;;;26.70;20.95;;;10.50;99.90;;;;;;4953235;29;20154;-60
2022/01/15 10:57:25;;;;;;;28.52;22.70;;;11.40;99.90;;;;;;4948940;29;20078;-60
2022/01/15 11:00:16;;;;;;;28.25;22.08;;;12.50;99.90;;;;;;4950253;28;20070;-59
2022/01/15 11:03:00;;;;;;;24.83;19.80;;;12.20;98.00;;;;;;4951260;29;20027;-60
2022/01/15 11:05:32;;;;;;;27.57;20.07;;;11.10;99.90;;;;;;4949206;29;20094;-60
2022/01/15 11:08:16;;;;;;;22.85;18.10;;;11.10;99.90;;;;;;4950586;28;20051;-59
2022/01/15 11:10:54;;;;;;;25.38;19.85;;;12.20;99.90;;;;;;4935907;29;20519;-60
2022/01/15 11:13:22;;;;;;;26.13;18.75;;;12.40;99.90;;;;;;4950340;28;20039;-60
2022/01/15 11:15:50;;;;;;;24.52;17.90;;;12.50;99.90;;;;;;4952621;29;20122;-60
2022/01/15 11:18:27;;;;;;;25.10;17.88;;;12.70;99.90;;;;;;4949211;28;20039;-60
2022/01/15 11:20:58;;;;;;;26.42;18.95;;;12.60;99.30;;;;;;4949129;28;20023;-60
2022/01/15 11:23:27;;;;;;;22.58;16.77;;;12.80;99.50;;;;;;4949726;29;20166;-60
2022/01/15 11:25:55;;;;;;;22.85;16.13;;;13.10;99.10;;;;;;4949698;29;20046;-59
2022/01/15 11:28:26;;;;;;;19.63;15.55;;;12.60;98.80;;;;;;4949425;28;20042;-60
2022/01/15 11:30:54;;;;;;;23.27;16.60;;;12.40;99.70;;;;;;4953294;29;20035;-60
2022/01/15 11:33:22;;;;;;;22.17;17.33;;;12.70;99.90;;;;;;4949717;29;20019;-60
2022/01/15 11:35:48;;;;;;;22.38;16.90;;;12.60;99.90;;;;;;4949069;28;20035;-60
2022/01/15 11:38:39;;;;;;;22.13;16.65;;;12.20;99.90;;;;;;4949454;29;20023;-60
2022/01/15 11:41:05;;;;;;;20.13;15.30;;;12.70;99.50;;;;;;4950014;29;20376;-60
2022/01/15 11:43:31;;;;;;;18.67;14.85;;;12.70;99.90;;;;;;4949764;29;20520;-60
2022/01/15 11:46:25;;;;;;;34.85;24.70;;;12.80;98.40;;;;;;4953038;29;20035;-60
2022/01/15 11:48:51;;;;;;;22.83;16.50;;;11.00;99.90;;;;;;4951858;29;20122;-60
2022/01/15 11:51:18;;;;;;;22.90;15.40;;;12.10;99.90;;;;;;4948025;29;20267;-60
2022/01/15 11:53:48;;;;;;;18.85;14.20;;;11.80;99.90;;;;;;4949027;29;20567;-60
2022/01/15 11:56:26;;;;;;;18.08;13.25;;;10.30;99.90;;;;;;4948973;29;20120;-60
2022/01/15 11:58:57;;;;;;;16.45;13.98;;;11.40;99.90;;;;;;4949332;29;20093;-60
2022/01/15 12:01:41;;;;;;;16.25;11.85;;;12.00;99.90;;;;;;4949460;28;20034;-60
2022/01/15 12:04:27;;;;;;;16.88;12.35;;;12.10;99.60;;;;;;4951396;28;20385;-59
2022/01/15 12:07:05;;;;;;;15.65;11.02;;;12.00;98.20;;;;;;4936856;29;20075;-59
2022/01/15 12:09:43;;;;;;;15.07;11.23;;;12.20;99.20;;;;;;4951620;29;20039;-61
2022/01/15 12:12:28;;;;;;;17.60;11.75;;;12.00;98.40;;;;;;4948108;28;20050;-59
2022/01/15 12:14:56;;;;;;;17.38;11.95;;;13.00;97.90;;;;;;4948628;29;20041;-61
2022/01/15 12:17:25;;;;;;;16.92;11.70;;;12.60;99.10;;;;;;4949947;29;20035;-60
2022/01/15 12:19:53;;;;;;;17.00;11.57;;;13.00;98.40;;;;;;4950175;29;20042;-61
2022/01/15 12:22:47;;;;;;;16.98;12.05;;;13.90;97.20;;;;;;4949392;28;20023;-61
2022/01/15 12:25:18;;;;;;;17.35;13.45;;;14.40;96.80;;;;;;4954462;28;20046;-61
2022/01/15 12:27:46;;;;;;;13.32;11.02;;;14.30;97.00;;;;;;4954649;29;20050;-61
2022/01/15 12:30:19;;;;;;;13.73;10.77;;;12.90;97.30;;;;;;4952339;28;20508;-61
2022/01/15 12:32:57;;;;;;;16.33;11.98;;;13.40;97.40;;;;;;4952354;28;20046;-61
2022/01/15 12:35:28;;;;;;;16.20;12.02;;;13.50;97.60;;;;;;4952438;29;20032;-61
2022/01/15 12:38:07;;;;;;;17.13;11.98;;;13.90;97.10;;;;;;4952123;28;20034;-60
2022/01/15 12:40:47;;;;;;;18.75;12.60;;;13.30;96.70;;;;;;4937288;29;20023;-61
2022/01/15 12:43:24;;;;;;;20.42;13.23;;;13.60;96.90;;;;;;4954297;28;20087;-61
2022/01/15 12:45:53;;;;;;;568.63;257.95;;;13.80;96.70;;;;;;4955221;29;20019;-61
2022/01/15 12:48:22;;;;;;;444.70;170.32;;;14.00;97.70;;;;;;4952778;29;20035;-61
2022/01/15 12:50:54;;;;;;;52.70;25.13;;;13.20;98.30;;;;;;4951712;29;20027;-61
2022/01/15 12:53:25;;;;;;;26.27;19.17;;;13.30;97.50;;;;;;4952372;29;20043;-61
2022/01/15 12:55:52;;;;;;;23.80;20.67;;;13.20;97.60;;;;;;4951844;29;20131;-62